Strona główna
METAR-TAF:

METAR-TAF

Lotnisko :

Sept-Îles, Quebec, Kanada

Szerokość geograficzna: 50-13N, Długość geograficzna: 066-16W, wysokość: 55 m

Aktualna obserwacja pogody

Raport powstał 58 minut temu, godzina 00:00 UTC
Wiatr 6 kt od zachód
Temperatura -13°C
Wilgotność 43%
Ciśnienie 1022 hPa
Widzialność: 24.1 km
Mało chmury na wysokości 22000 ft

METAR: CYZV 230000Z 28006KT 15SM FEW220 M13/M23 A3018 RMK CI1 CI TR SLP226

czas: 19:58 (00:58 UTC)

Prognoza

Raport powstał 1 godzina i 20 minut temu, godzina 23:38 UTC
Prognoza ważna od 23 godzina 00 UTC do 23 godzina 24 UTC
Wiatr 8 kt od zachodnio-północny zachód
Widzialność: 10 km
Mało chmury na wysokości 5000 ft
Stopniowe zmiany
od 23 godzina 00 UTC do 23 godzina 02 UTC
Wiatr 8 kt od zachodnio-północny zachód

TAF: CYZV 222338Z 2300/2324 30008KT P6SM FEW050 BECMG 2300/2302 30008KT RMK NXT FCST BY 230600Z

Obserwacja i prognoza pogody dla ponad 4000 lotnisk (raport METAR i TAF).

Dostępne stacje oznaczono żółtymi i czerwonymi punktami na mapie.

Najedź kursorem aby zobaczyć nazwę stacji.

Kliknij aby zobaczyć obserwacje i prognozy pogody.

Aby zmienić mapę: kliknij na zielony przycisk z czarnym krzyżykiem, aby powiększyć; na zielony przycisk z myślnikiem, aby pomniejszyć; na zielone strzałki, aby przejść do map sąsiednich.


METAR-TAF: